Time;durP1;ratioP1;P1;durP2;ratioP2;P2;SDS_P1;SDS_P2;PMS_P1;PMS_P2;Temp;Humidity;BMP_temperature;BMP_pressure;BME280_temperature;BME280_humidity;BME280_pressure;Samples;Min_cycle;Max_cycle;Signal;HPM_P1;HPM_P2
2023/02/13 00:00:24;;;;;;;16.00;9.70;;;;;;;7.38;97.86;103080.74;107210;1252;70868;-76
2023/02/13 00:02:51;;;;;;;14.80;9.60;;;;;;;7.40;97.54;103081.14;107323;1253;72471;-75
2023/02/13 00:05:18;;;;;;;15.20;9.80;;;;;;;7.40;97.63;103077.95;107287;1252;61584;-76
2023/02/13 00:07:45;;;;;;;16.30;10.10;;;;;;;7.41;97.43;103078.77;107537;1252;59227;-75
2023/02/13 00:10:12;;;;;;;15.40;10.80;;;;;;;7.40;97.24;103081.33;107396;1253;73500;-75
2023/02/13 00:12:39;;;;;;;14.40;10.20;;;;;;;7.39;97.08;103080.48;107421;1254;69785;-75
2023/02/13 00:15:07;;;;;;;15.70;10.20;;;;;;;7.39;97.14;103080.85;107116;1257;71813;-75
2023/02/13 00:17:34;;;;;;;15.20;10.00;;;;;;;7.37;97.36;103084.65;107433;1255;61160;-75
2023/02/13 00:20:01;;;;;;;16.00;10.30;;;;;;;7.35;97.09;103084.23;107331;1253;61238;-75
2023/02/13 00:22:28;;;;;;;15.50;10.90;;;;;;;7.35;97.39;103074.56;107189;1253;73606;-75
2023/02/13 00:24:55;;;;;;;16.00;10.70;;;;;;;7.37;97.15;103077.43;107244;1253;69642;-75
2023/02/13 00:27:22;;;;;;;15.10;11.00;;;;;;;7.38;97.69;103075.30;106884;1253;72835;-76
2023/02/13 00:29:49;;;;;;;15.10;10.50;;;;;;;7.38;97.58;103069.43;107608;1253;61881;-75
2023/02/13 00:32:16;;;;;;;14.50;10.00;;;;;;;7.40;97.53;103071.27;107181;1253;61239;-76
2023/02/13 00:34:43;;;;;;;15.20;10.50;;;;;;;7.42;97.41;103074.51;107120;1252;73600;-75
2023/02/13 00:37:10;;;;;;;14.70;10.40;;;;;;;7.41;97.38;103079.10;107324;1253;69679;-72
2023/02/13 00:39:36;;;;;;;15.50;10.30;;;;;;;7.40;97.07;103079.52;107339;1252;70627;-74
2023/02/13 00:42:04;;;;;;;16.10;10.80;;;;;;;7.40;97.41;103082.38;107141;1253;60545;-76
2023/02/13 00:44:30;;;;;;;15.20;10.40;;;;;;;7.39;97.34;103080.11;107254;1253;61344;-76
2023/02/13 00:46:57;;;;;;;15.30;10.10;;;;;;;7.38;97.20;103080.37;107206;1256;74530;-76
2023/02/13 00:49:24;;;;;;;17.50;11.00;;;;;;;7.39;97.32;103084.02;107099;1253;69922;-76
2023/02/13 00:51:51;;;;;;;16.60;10.70;;;;;;;7.38;97.27;103077.02;107218;1253;71715;-75
2023/02/13 00:54:18;;;;;;;15.40;10.20;;;;;;;7.36;97.00;103075.01;107192;1252;61389;-78
2023/02/13 00:56:45;;;;;;;14.70;10.00;;;;;;;7.35;97.33;103075.59;107464;1252;61234;-75
2023/02/13 00:59:12;;;;;;;16.30;10.20;;;;;;;7.36;97.62;103072.34;107147;1252;73587;-75
2023/02/13 01:01:39;;;;;;;16.80;11.10;;;;;;;7.39;97.42;103073.23;107104;1251;70966;-75
2023/02/13 01:04:06;;;;;;;15.50;10.00;;;;;;;7.41;97.69;103071.20;107193;1253;71263;-76
2023/02/13 01:06:33;;;;;;;16.40;10.50;;;;;;;7.43;97.47;103067.88;107452;1253;61247;-75
2023/02/13 01:09:01;;;;;;;15.10;10.60;;;;;;;7.45;97.38;103066.38;107393;1253;61255;-74
2023/02/13 01:11:28;;;;;;;14.80;10.30;;;;;;;7.46;97.11;103069.80;106874;1255;75052;-78
2023/02/13 01:13:54;;;;;;;16.30;10.70;;;;;;;7.47;97.39;103069.77;107107;1253;71632;-75
2023/02/13 01:16:21;;;;;;;16.20;11.10;;;;;;;7.46;97.00;103061.36;107357;1252;71400;-76
2023/02/13 01:18:48;;;;;;;15.50;10.60;;;;;;;7.45;96.95;103060.90;107275;1252;60900;-76
2023/02/13 01:21:18;;;;;;;16.40;11.30;;;;;;;7.44;96.90;103060.08;107123;1253;61397;-76
2023/02/13 01:23:45;;;;;;;16.50;11.10;;;;;;;7.44;97.26;103057.25;107821;1255;73952;-75
2023/02/13 01:26:18;;;;;;;16.00;10.60;;;;;;;7.44;97.00;103054.96;107485;1253;72058;-75
2023/02/13 01:28:45;;;;;;;15.10;10.40;;;;;;;7.43;96.87;103049.95;107358;1252;71136;-75
2023/02/13 01:31:13;;;;;;;15.30;9.70;;;;;;;7.42;97.01;103049.50;107115;1255;61284;-75
2023/02/13 01:33:40;;;;;;;16.90;11.00;;;;;;;7.41;96.74;103051.80;107157;1252;61260;-75
2023/02/13 01:36:10;;;;;;;16.90;10.50;;;;;;;7.42;96.87;103051.08;107857;1252;74664;-75
2023/02/13 01:38:37;;;;;;;15.80;11.10;;;;;;;7.43;97.11;103046.79;107853;1252;71492;-76
2023/02/13 01:41:04;;;;;;;16.10;10.70;;;;;;;7.43;96.63;103045.02;107516;1257;71595;-77
2023/02/13 01:43:53;;;;;;;16.90;11.10;;;;;;;7.44;97.08;103043.52;107828;1253;61276;-75
2023/02/13 01:46:36;;;;;;;15.60;10.90;;;;;;;7.46;96.90;103042.70;107891;1257;61182;-76
2023/02/13 01:49:19;;;;;;;16.10;10.60;;;;;;;7.48;96.58;103043.80;107972;1252;74625;-76
2023/02/13 01:51:51;;;;;;;15.80;10.80;;;;;;;7.50;96.62;103041.05;107492;1252;70925;-76
2023/02/13 01:54:26;;;;;;;15.70;10.50;;;;;;;7.48;96.38;103037.81;107688;1252;72439;-77
2023/02/13 01:56:55;;;;;;;14.80;10.30;;;;;;;7.48;96.30;103035.72;107148;1253;61251;-76
2023/02/13 01:59:30;;;;;;;14.80;10.70;;;;;;;7.47;96.33;103036.33;108279;1253;59177;-77
2023/02/13 02:01:58;;;;;;;14.60;10.30;;;;;;;7.46;96.46;103037.40;107767;1253;74513;-78
2023/02/13 02:04:30;;;;;;;14.90;10.10;;;;;;;7.46;96.57;103034.58;108026;1252;71501;-76
2023/02/13 02:07:05;;;;;;;16.00;10.60;;;;;;;7.47;96.46;103036.27;107493;1253;72524;-77
2023/02/13 02:09:36;;;;;;;15.90;10.70;;;;;;;7.47;96.58;103033.49;106971;1253;61293;-76
2023/02/13 02:12:26;;;;;;;15.30;10.70;;;;;;;7.48;96.32;103034.15;107135;1253;61680;-77
2023/02/13 02:14:56;;;;;;;15.00;10.40;;;;;;;7.49;96.54;103032.69;108817;1253;73452;-75
2023/02/13 02:17:24;;;;;;;15.50;10.20;;;;;;;7.49;96.68;103027.40;109177;1253;69748;-75
2023/02/13 02:20:07;;;;;;;16.30;10.90;;;;;;;7.49;96.27;103029.33;107279;1253;70907;-76
2023/02/13 02:22:46;;;;;;;15.80;10.90;;;;;;;7.51;96.72;103031.13;108135;1252;61459;-75
2023/02/13 02:25:46;;;;;;;15.90;10.60;;;;;;;7.52;96.60;103026.11;106917;1252;61263;-77
2023/02/13 02:28:51;;;;;;;15.70;10.30;;;;;;;7.51;96.03;103024.93;106956;1255;73130;-76
2023/02/13 02:31:25;;;;;;;14.50;10.60;;;;;;;7.50;96.29;103019.55;107094;1253;71616;-77
2023/02/13 02:34:06;;;;;;;13.50;9.80;;;;;;;7.49;96.17;103019.46;107386;1251;72818;-76
2023/02/13 02:37:14;;;;;;;15.00;10.50;;;;;;;7.48;96.41;103014.73;107266;1252;61031;-76
2023/02/13 02:40:22;;;;;;;15.80;10.30;;;;;;;7.49;96.49;103014.00;106793;1252;61349;-76
2023/02/13 02:43:08;;;;;;;15.20;10.40;;;;;;;7.47;96.25;103010.58;107246;1251;72561;-78
2023/02/13 02:45:48;;;;;;;14.30;10.10;;;;;;;7.46;96.31;103011.86;107238;1253;72250;-75
2023/02/13 02:51:44;;;;;;;14.50;10.00;;;;;;;7.43;96.28;103003.12;107078;1253;61373;-74
2023/02/13 02:57:13;;;;;;;17.60;10.60;;;;;;;7.38;96.31;103000.98;107320;1252;76247;-74
2023/02/13 03:08:07;;;;;;;15.00;10.10;;;;;;;7.33;96.75;102994.38;107231;1251;61296;-78
2023/02/13 03:13:46;;;;;;;15.10;9.90;;;;;;;7.31;96.32;103001.21;107400;1252;71158;-76
2023/02/13 03:22:41;;;;;;;15.40;10.00;;;;;;;7.32;96.73;103000.63;107208;1254;59977;-76
2023/02/13 03:25:32;;;;;;;16.50;9.80;;;;;;;7.29;96.84;102998.69;107869;1252;73462;-76
2023/02/13 03:31:31;;;;;;;15.20;9.80;;;;;;;7.25;96.75;102993.30;107944;1253;72114;-74
2023/02/13 03:34:05;;;;;;;15.40;10.40;;;;;;;7.23;96.76;102994.85;107552;1252;61729;-76
2023/02/13 03:39:53;;;;;;;14.70;9.70;;;;;;;7.23;97.15;103000.50;107463;1252;73407;-75
2023/02/13 03:42:30;;;;;;;13.60;9.50;;;;;;;7.22;97.13;103001.05;107167;1253;69857;-76
2023/02/13 03:47:52;;;;;;;14.40;9.80;;;;;;;7.24;96.92;103012.71;107419;1253;61238;-75
2023/02/13 03:50:19;;;;;;;15.60;9.40;;;;;;;7.25;97.11;103011.46;107242;1252;61209;-75
2023/02/13 03:52:49;;;;;;;16.20;9.70;;;;;;;7.26;97.23;103008.77;107410;1252;74872;-76
2023/02/13 04:01:07;;;;;;;14.80;9.70;;;;;;;7.28;97.06;103007.20;107155;1252;61327;-77
2023/02/13 04:04:05;;;;;;;13.90;9.20;;;;;;;7.27;96.54;103004.65;107128;1254;61291;-75
2023/02/13 04:06:39;;;;;;;13.10;9.20;;;;;;;7.23;96.84;103005.39;107555;1252;72306;-75
2023/02/13 04:09:06;;;;;;;14.80;9.30;;;;;;;7.21;96.85;103006.09;107321;1252;70571;-76
2023/02/13 04:11:44;;;;;;;14.00;9.60;;;;;;;7.18;96.90;103006.42;107339;1253;71271;-76
2023/02/13 04:14:27;;;;;;;14.60;9.60;;;;;;;7.17;96.86;103006.88;106945;1253;61618;-76
2023/02/13 04:17:06;;;;;;;13.90;9.20;;;;;;;7.14;96.69;103009.35;107471;1252;61263;-77
2023/02/13 04:19:34;;;;;;;14.80;10.20;;;;;;;7.12;97.13;103005.05;107105;1252;73322;-77
2023/02/13 04:22:01;;;;;;;16.00;10.20;;;;;;;7.12;97.33;103004.70;107400;1252;70472;-76
2023/02/13 04:24:28;;;;;;;14.30;9.60;;;;;;;7.14;97.42;103003.55;107085;1252;72472;-76
2023/02/13 04:26:56;;;;;;;15.40;9.60;;;;;;;7.15;97.34;103005.58;107454;1252;61143;-77
2023/02/13 04:29:25;;;;;;;15.30;9.80;;;;;;;7.17;97.54;103005.08;106973;1253;61540;-78
2023/02/13 04:31:52;;;;;;;14.40;9.40;;;;;;;7.18;97.11;103001.51;107436;1252;73176;-76
2023/02/13 04:34:19;;;;;;;14.20;9.90;;;;;;;7.19;97.15;102997.23;107332;1253;70030;-79
2023/02/13 04:36:46;;;;;;;16.10;9.90;;;;;;;7.20;97.09;102996.29;107348;1253;71233;-76
2023/02/13 04:39:13;;;;;;;14.80;10.00;;;;;;;7.23;97.52;102991.35;107357;1253;62532;-79
2023/02/13 04:41:40;;;;;;;15.30;10.10;;;;;;;7.26;97.31;102990.96;107257;1253;61235;-75
2023/02/13 04:44:07;;;;;;;13.90;9.00;;;;;;;7.27;97.15;102988.42;107152;1252;74782;-76
2023/02/13 04:46:34;;;;;;;16.40;9.50;;;;;;;7.27;96.78;102987.55;107256;1252;69682;-77
2023/02/13 04:49:01;;;;;;;13.60;9.00;;;;;;;7.26;96.71;102983.91;107188;1252;72406;-75
2023/02/13 04:51:28;;;;;;;15.60;10.20;;;;;;;7.25;96.55;102986.48;107011;1253;61293;-75
2023/02/13 04:53:55;;;;;;;13.90;8.70;;;;;;;7.26;96.57;102989.95;107082;1253;61133;-76
2023/02/13 04:56:22;;;;;;;15.90;9.60;;;;;;;7.25;96.54;102991.58;106979;1253;73590;-78
2023/02/13 04:58:49;;;;;;;14.10;9.30;;;;;;;7.24;96.32;102988.48;107319;1253;70931;-75
2023/02/13 05:01:16;;;;;;;12.40;8.90;;;;;;;7.23;96.36;102985.69;107320;1253;70261;-77
2023/02/13 05:03:43;;;;;;;13.90;9.00;;;;;;;7.24;96.49;102985.48;107263;1252;61251;-76
2023/02/13 05:06:10;;;;;;;14.20;9.20;;;;;;;7.24;96.29;102984.77;107699;1253;61201;-75
2023/02/13 05:08:37;;;;;;;13.50;9.00;;;;;;;7.25;96.81;102986.98;107387;1253;72987;-76
2023/02/13 05:11:04;;;;;;;12.40;8.50;;;;;;;7.26;96.26;102989.23;107374;1253;68894;-76
2023/02/13 05:13:31;;;;;;;12.80;8.90;;;;;;;7.24;96.09;102991.07;107292;1252;73562;-76
2023/02/13 05:15:58;;;;;;;12.70;9.40;;;;;;;7.22;96.07;102991.40;107699;1253;61148;-76
2023/02/13 05:18:25;;;;;;;13.70;9.40;;;;;;;7.21;96.29;102995.66;107604;1252;60351;-77
2023/02/13 05:23:37;;;;;;;12.80;8.90;;;;;;;7.22;96.34;103000.69;107296;1252;71550;-76
2023/02/13 05:26:04;;;;;;;13.30;8.30;;;;;;;7.23;96.25;103000.32;107124;1257;72388;-75
2023/02/13 05:31:33;;;;;;;13.00;8.80;;;;;;;7.21;96.07;103003.82;106702;1261;61164;-76
2023/02/13 05:34:00;;;;;;;13.10;8.90;;;;;;;7.22;96.21;103007.05;107485;1256;74431;-74
2023/02/13 05:36:27;;;;;;;13.70;8.60;;;;;;;7.22;96.40;103007.22;107467;1252;72081;-73
2023/02/13 05:38:54;;;;;;;14.10;8.90;;;;;;;7.21;95.99;103007.11;107134;1253;61373;-77
2023/02/13 05:41:21;;;;;;;14.40;8.90;;;;;;;7.18;96.12;103003.41;107607;1255;61208;-74
2023/02/13 05:43:48;;;;;;;12.60;9.00;;;;;;;7.17;95.92;103004.73;107186;1252;61143;-72
2023/02/13 05:46:14;;;;;;;12.40;7.60;;;;;;;7.15;96.02;103002.91;108557;1252;453664;-72
2023/02/13 05:48:41;;;;;;;12.30;8.30;;;;;;;7.13;95.91;103001.30;107219;1252;70092;-73
2023/02/13 05:51:08;;;;;;;11.30;7.80;;;;;;;7.14;96.32;103002.84;107218;1253;72327;-72
2023/02/13 05:53:35;;;;;;;13.80;8.30;;;;;;;7.14;96.31;103005.09;107794;1252;61111;-74
2023/02/13 05:56:04;;;;;;;11.90;8.20;;;;;;;7.15;96.15;103008.91;107267;1252;61831;-73
2023/02/13 05:58:32;;;;;;;12.30;8.10;;;;;;;7.18;96.25;103010.66;107847;1252;73116;-72
2023/02/13 06:00:59;;;;;;;11.30;7.60;;;;;;;7.20;96.06;103011.94;108212;1252;72332;-73
2023/02/13 06:03:29;;;;;;;10.80;7.80;;;;;;;7.21;96.04;103011.86;107175;1254;71301;-73
2023/02/13 06:05:56;;;;;;;10.70;7.00;;;;;;;7.23;96.07;103013.02;107276;1253;61265;-73
2023/02/13 06:08:23;;;;;;;12.00;7.20;;;;;;;7.22;95.64;103008.61;107395;1253;61195;-72
2023/02/13 06:10:50;;;;;;;8.60;6.30;;;;;;;7.21;95.62;103014.33;107609;1253;75097;-73
2023/02/13 06:13:17;;;;;;;13.40;6.80;;;;;;;7.19;95.53;103013.23;107284;1253;71174;-73
2023/02/13 06:15:44;;;;;;;9.30;6.20;;;;;;;7.18;95.61;103010.86;107129;1255;72397;-75
2023/02/13 06:18:12;;;;;;;10.80;6.60;;;;;;;7.15;95.32;103015.23;107230;1253;62047;-75
2023/02/13 06:20:39;;;;;;;8.00;6.00;;;;;;;7.14;95.44;103015.14;107251;1254;61739;-75
2023/02/13 06:23:05;;;;;;;8.60;5.80;;;;;;;7.12;95.44;103018.95;107070;1253;72180;-74
2023/02/13 06:25:34;;;;;;;8.50;5.50;;;;;;;7.11;95.19;103023.05;108477;1252;69630;-74
2023/02/13 06:28:01;;;;;;;8.40;5.40;;;;;;;7.12;95.30;103024.05;107259;1253;71453;-76
2023/02/13 06:30:29;;;;;;;9.60;5.70;;;;;;;7.15;95.72;103021.77;107619;1253;61236;-75
2023/02/13 06:32:56;;;;;;;8.50;5.40;;;;;;;7.19;95.15;103020.64;107226;1253;61186;-76
2023/02/13 06:35:23;;;;;;;9.00;5.30;;;;;;;7.21;95.02;103021.02;107471;1252;73138;-75
2023/02/13 06:37:50;;;;;;;8.10;4.50;;;;;;;7.21;94.63;103027.02;107011;1257;69662;-75
2023/02/13 06:40:17;;;;;;;12.60;6.70;;;;;;;7.20;94.55;103030.03;107266;1253;72521;-76
2023/02/13 06:42:45;;;;;;;7.90;4.60;;;;;;;7.21;94.78;103031.05;106923;1252;61341;-77
2023/02/13 06:45:12;;;;;;;10.00;4.80;;;;;;;7.23;94.34;103032.02;107461;1254;61133;-75
2023/02/13 06:47:43;;;;;;;7.50;4.30;;;;;;;7.24;94.40;103033.86;107853;1253;74371;-77
2023/02/13 06:50:11;;;;;;;7.40;4.50;;;;;;;7.26;94.30;103036.70;107205;1251;68859;-75
2023/02/13 06:52:46;;;;;;;7.50;4.20;;;;;;;7.27;93.99;103036.86;107569;1253;71592;-75
2023/02/13 06:55:20;;;;;;;7.70;3.90;;;;;;;7.28;94.01;103037.34;108016;1253;62091;-75
2023/02/13 06:57:47;;;;;;;6.70;3.80;;;;;;;7.26;93.20;103037.28;107126;1260;61183;-74
2023/02/13 07:00:16;;;;;;;7.10;4.50;;;;;;;7.24;93.35;103034.77;107400;1253;73292;-74
2023/02/13 07:02:44;;;;;;;5.50;3.90;;;;;;;7.21;93.22;103034.77;107358;1253;69701;-74
2023/02/13 07:05:12;;;;;;;6.40;3.80;;;;;;;7.18;93.22;103037.22;107078;1253;72795;-74
2023/02/13 07:07:40;;;;;;;6.60;3.70;;;;;;;7.15;93.11;103042.00;106732;1258;61663;-74
2023/02/13 07:10:10;;;;;;;5.80;3.70;;;;;;;7.12;93.19;103042.54;107091;1253;61338;-73
2023/02/13 07:12:38;;;;;;;6.70;3.60;;;;;;;7.10;93.25;103043.53;106693;1253;72396;-75
2023/02/13 07:15:05;;;;;;;5.50;3.40;;;;;;;7.08;93.20;103039.98;107277;1253;73298;-76
2023/02/13 07:17:32;;;;;;;6.60;3.40;;;;;;;7.07;93.14;103041.63;106852;1251;71234;-80
2023/02/13 07:19:59;;;;;;;5.80;3.40;;;;;;;7.06;93.07;103044.30;107073;1256;62444;-75
2023/02/13 07:22:27;;;;;;;6.30;3.60;;;;;;;7.06;93.03;103045.34;107285;1252;61157;-76
2023/02/13 07:24:54;;;;;;;5.30;3.50;;;;;;;7.07;93.06;103043.56;107166;1253;73792;-76
2023/02/13 07:27:21;;;;;;;5.20;3.10;;;;;;;7.06;93.13;103043.93;107040;1253;72506;-76
2023/02/13 07:29:48;;;;;;;5.50;3.30;;;;;;;7.09;93.00;103048.52;106908;1255;73005;-76
2023/02/13 07:32:15;;;;;;;7.10;3.50;;;;;;;7.10;93.06;103050.06;107024;1253;61459;-74
2023/02/13 07:34:45;;;;;;;6.60;3.60;;;;;;;7.13;93.26;103052.51;107369;1256;61264;-75
2023/02/13 07:37:29;;;;;;;5.10;3.40;;;;;;;7.15;93.02;103053.09;107266;1255;73258;-75
2023/02/13 07:39:56;;;;;;;6.20;4.40;;;;;;;7.14;93.15;103053.30;107309;1258;69972;-75
2023/02/13 07:42:23;;;;;;;7.40;4.30;;;;;;;7.16;93.23;103058.98;106773;1253;72680;-76
2023/02/13 07:44:50;;;;;;;6.00;4.10;;;;;;;7.18;92.84;103062.38;106970;1253;62444;-75
2023/02/13 07:47:17;;;;;;;7.40;3.70;;;;;;;7.20;93.16;103064.73;106767;1252;61152;-77
2023/02/13 07:49:46;;;;;;;5.90;4.10;;;;;;;7.22;92.95;103061.66;107150;1255;74734;-75
2023/02/13 07:52:13;;;;;;;6.60;4.10;;;;;;;7.21;92.86;103064.66;106880;1257;71463;-75
2023/02/13 07:54:45;;;;;;;6.30;3.80;;;;;;;7.21;92.97;103060.29;107578;1253;72953;-74
2023/02/13 07:57:14;;;;;;;6.00;3.80;;;;;;;7.19;92.74;103064.62;106858;1253;61553;-75
2023/02/13 07:59:41;;;;;;;7.00;3.90;;;;;;;7.21;92.98;103062.25;107556;1253;61249;-75
2023/02/13 08:02:12;;;;;;;6.10;3.90;;;;;;;7.22;92.63;103063.77;106893;1253;73773;-75
2023/02/13 08:04:39;;;;;;;6.10;3.90;;;;;;;7.23;92.87;103063.64;107350;1252;71839;-75
2023/02/13 08:07:06;;;;;;;5.00;3.30;;;;;;;7.27;92.87;103068.14;106709;1253;72171;-74
2023/02/13 08:12:18;;;;;;;6.80;4.00;;;;;;;7.29;92.86;103070.52;107070;1253;61327;-74
2023/02/13 08:14:45;;;;;;;6.10;4.10;;;;;;;7.29;92.79;103073.48;107179;1253;74671;-74
2023/02/13 08:17:12;;;;;;;6.90;4.10;;;;;;;7.30;92.66;103075.58;106823;1253;70141;-75
2023/02/13 08:19:39;;;;;;;6.50;4.60;;;;;;;7.31;92.67;103074.08;107173;1253;70772;-76
2023/02/13 08:22:06;;;;;;;6.40;4.50;;;;;;;7.33;92.65;103077.98;106875;1251;61739;-75
2023/02/13 08:24:33;;;;;;;7.80;5.00;;;;;;;7.32;92.44;103081.05;107241;1253;61336;-73
2023/02/13 08:26:59;;;;;;;7.50;5.10;;;;;;;7.34;92.49;103086.40;106925;1254;74689;-71
2023/02/13 08:29:26;;;;;;;7.90;4.90;;;;;;;7.34;92.70;103082.36;106880;1252;71950;-73
2023/02/13 08:31:53;;;;;;;7.00;5.00;;;;;;;7.36;92.28;103088.55;107178;1253;72478;-72
2023/02/13 08:34:21;;;;;;;7.50;4.80;;;;;;;7.37;92.65;103085.88;107377;1253;61250;-76
2023/02/13 08:36:47;;;;;;;7.80;5.00;;;;;;;7.37;92.42;103084.11;107190;1252;61150;-74
2023/02/13 08:39:15;;;;;;;8.60;5.10;;;;;;;7.41;92.54;103078.27;106974;1253;73693;-78
2023/02/13 08:41:42;;;;;;;9.90;5.20;;;;;;;7.46;92.49;103082.86;107065;1253;69764;-75
2023/02/13 08:44:10;;;;;;;6.50;4.20;;;;;;;7.49;92.20;103075.78;107394;1253;72444;-75
2023/02/13 08:46:37;;;;;;;6.90;4.80;;;;;;;7.52;92.06;103081.05;107112;1252;61330;-75
2023/02/13 08:49:04;;;;;;;8.00;4.80;;;;;;;7.52;91.82;103081.20;107102;1253;61327;-76
2023/02/13 08:51:31;;;;;;;7.70;5.20;;;;;;;7.52;91.78;103087.54;107398;1253;74451;-75
2023/02/13 08:53:59;;;;;;;7.00;4.60;;;;;;;7.54;91.73;103085.84;107126;1251;69998;-74
2023/02/13 08:56:26;;;;;;;6.00;4.60;;;;;;;7.60;91.87;103087.62;107088;1253;71309;-76
2023/02/13 08:58:53;;;;;;;6.90;4.60;;;;;;;7.61;91.49;103085.80;106900;1253;61253;-75
2023/02/13 09:01:22;;;;;;;6.80;4.70;;;;;;;7.65;91.54;103084.14;106970;1255;59646;-76
2023/02/13 09:03:50;;;;;;;6.70;4.60;;;;;;;7.67;90.95;103086.82;106948;1253;73950;-75
2023/02/13 09:06:17;;;;;;;7.60;5.10;;;;;;;7.70;91.29;103084.71;106841;1255;71765;-74
2023/02/13 09:08:44;;;;;;;7.00;5.00;;;;;;;7.76;91.20;103087.45;106641;1253;72443;-74
2023/02/13 09:11:10;;;;;;;7.40;5.30;;;;;;;7.83;91.29;103084.58;107515;1252;61034;-74
2023/02/13 09:13:37;;;;;;;7.10;5.00;;;;;;;7.88;90.98;103085.30;107132;1252;61322;-73
2023/02/13 09:16:06;;;;;;;7.80;5.10;;;;;;;7.90;90.14;103084.27;107023;1253;73501;-74
2023/02/13 09:18:34;;;;;;;6.70;4.80;;;;;;;7.94;90.46;103084.73;106849;1253;71002;-76
2023/02/13 09:21:06;;;;;;;7.10;5.10;;;;;;;7.99;90.06;103085.10;106742;1252;73903;-75
2023/02/13 09:23:36;;;;;;;7.00;4.80;;;;;;;8.06;89.73;103082.71;107191;1252;61224;-74
2023/02/13 09:26:06;;;;;;;7.00;4.80;;;;;;;8.08;89.20;103080.99;107427;1252;61237;-74
2023/02/13 09:28:34;;;;;;;6.80;4.70;;;;;;;8.12;89.04;103082.84;107543;1252;73559;-74
2023/02/13 09:31:09;;;;;;;5.60;4.00;;;;;;;8.12;88.18;103079.14;107033;1256;70096;-74
2023/02/13 09:33:36;;;;;;;5.90;4.10;;;;;;;8.13;88.18;103078.90;106654;1253;72336;-75
2023/02/13 09:36:07;;;;;;;6.60;4.50;;;;;;;8.13;88.07;103082.80;106929;1253;61400;-74
2023/02/13 09:38:43;;;;;;;6.00;4.40;;;;;;;8.15;88.50;103080.18;106591;1253;61247;-74
2023/02/13 09:41:18;;;;;;;6.90;5.00;;;;;;;8.22;88.07;103083.14;106903;1253;74459;-75
2023/02/13 09:44:01;;;;;;;6.80;4.50;;;;;;;8.22;87.29;103078.72;107261;1252;69746;-75
2023/02/13 09:46:36;;;;;;;7.00;4.40;;;;;;;8.25;87.27;103076.02;106856;1253;71412;-74
2023/02/13 09:49:15;;;;;;;6.40;4.50;;;;;;;8.30;87.17;103075.67;106749;1253;61236;-75
2023/02/13 09:51:44;;;;;;;6.00;4.30;;;;;;;8.36;87.00;103078.31;106913;1252;61288;-74
2023/02/13 09:54:15;;;;;;;6.10;4.10;;;;;;;8.43;87.08;103074.89;106963;1255;74850;-75
2023/02/13 09:56:48;;;;;;;6.80;4.50;;;;;;;8.50;86.93;103077.73;106888;1253;70460;-75
2023/02/13 09:59:50;;;;;;;5.30;3.90;;;;;;;8.59;86.45;103079.61;106974;1253;72780;-73
2023/02/13 10:02:50;;;;;;;6.50;4.60;;;;;;;8.64;85.60;103076.48;107284;1253;61354;-76
2023/02/13 10:05:19;;;;;;;5.50;4.00;;;;;;;8.68;85.32;103073.71;107031;1257;61509;-75
2023/02/13 10:07:58;;;;;;;6.40;4.60;;;;;;;8.76;85.83;103076.31;107057;1253;75379;-75
2023/02/13 10:10:25;;;;;;;5.40;3.90;;;;;;;8.83;85.34;103082.21;107216;1252;70015;-74
2023/02/13 10:13:10;;;;;;;6.30;4.20;;;;;;;8.88;85.21;103085.10;106921;1253;73965;-74
2023/02/13 10:16:06;;;;;;;5.90;4.20;;;;;;;8.93;84.78;103086.98;107353;1252;62401;-77
2023/02/13 10:18:59;;;;;;;5.80;3.90;;;;;;;8.94;84.00;103089.90;106882;1253;61294;-75
2023/02/13 10:21:32;;;;;;;5.50;4.00;;;;;;;8.96;84.43;103090.37;107157;1253;74784;-74
2023/02/13 10:24:16;;;;;;;6.70;4.30;;;;;;;8.96;84.35;103095.28;107245;1252;69409;-75
2023/02/13 10:26:45;;;;;;;5.50;4.00;;;;;;;8.98;84.23;103097.11;107343;1253;72396;-76
2023/02/13 10:32:13;;;;;;;6.10;4.10;;;;;;;8.96;83.54;103091.02;106941;1253;61161;-73
2023/02/13 10:34:43;;;;;;;5.90;3.80;;;;;;;8.93;83.36;103094.59;107232;1253;73174;-79
2023/02/13 10:37:14;;;;;;;5.90;4.00;;;;;;;8.93;83.47;103093.90;106600;1260;71146;-75
2023/02/13 10:39:45;;;;;;;6.10;4.00;;;;;;;8.89;83.00;103092.92;107437;1255;72426;-76
2023/02/13 10:42:23;;;;;;;5.30;3.50;;;;;;;8.89;83.18;103090.33;106921;1253;61254;-75
2023/02/13 10:45:26;;;;;;;6.00;3.70;;;;;;;8.90;83.28;103084.90;107169;1255;61229;-75
2023/02/13 10:47:53;;;;;;;5.60;3.50;;;;;;;8.96;83.60;103086.60;107316;1253;74874;-74
2023/02/13 10:50:26;;;;;;;5.50;3.30;;;;;;;9.05;83.29;103087.65;106564;1253;71175;-75
2023/02/13 10:53:24;;;;;;;4.90;3.40;;;;;;;9.08;82.75;103090.97;107172;1257;73107;-74
2023/02/13 10:55:53;;;;;;;6.90;3.50;;;;;;;9.12;82.44;103090.17;106833;1253;61565;-78
2023/02/13 10:58:48;;;;;;;6.50;4.00;;;;;;;9.14;82.19;103087.88;107333;1253;61246;-74
2023/02/13 11:01:42;;;;;;;4.90;3.60;;;;;;;9.16;82.06;103087.35;106964;1253;73760;-74
2023/02/13 11:04:12;;;;;;;4.50;3.30;;;;;;;9.23;82.18;103084.98;107138;1256;69905;-73
2023/02/13 11:06:56;;;;;;;4.70;3.20;;;;;;;9.33;82.32;103081.80;106619;1253;72316;-74
2023/02/13 11:09:24;;;;;;;4.30;2.90;;;;;;;9.38;81.17;103078.56;106989;1255;61602;-74
2023/02/13 11:11:51;;;;;;;4.30;2.90;;;;;;;9.40;80.84;103079.52;106916;1252;60344;-74
2023/02/13 11:14:21;;;;;;;4.40;3.00;;;;;;;9.38;80.59;103072.95;107291;1252;74513;-73
2023/02/13 11:16:59;;;;;;;4.30;2.90;;;;;;;9.36;80.60;103072.38;106963;1251;73356;-72
2023/02/13 11:19:33;;;;;;;3.90;2.80;;;;;;;9.36;80.69;103070.81;107472;1252;71993;-73
2023/02/13 11:22:04;;;;;;;4.00;2.50;;;;;;;9.39;80.73;103071.29;107377;1256;61342;-74
2023/02/13 11:24:32;;;;;;;4.10;2.90;;;;;;;9.45;80.78;103071.59;107211;1255;59387;-74
2023/02/13 11:27:07;;;;;;;4.50;2.80;;;;;;;9.44;80.36;103073.94;107132;1253;73177;-75
2023/02/13 11:29:37;;;;;;;3.60;2.60;;;;;;;9.43;79.73;103072.05;106832;1257;68777;-74
2023/02/13 11:32:13;;;;;;;3.50;2.40;;;;;;;9.40;79.90;103072.27;106893;1253;71150;-74
2023/02/13 11:34:40;;;;;;;4.50;2.80;;;;;;;9.40;80.21;103069.66;107170;1255;61162;-71
2023/02/13 11:37:14;;;;;;;4.20;2.50;;;;;;;9.46;80.62;103066.91;107350;1251;61239;-74
2023/02/13 11:39:42;;;;;;;3.70;2.60;;;;;;;9.48;79.89;103059.73;106923;1253;74620;-75
2023/02/13 11:42:15;;;;;;;3.60;2.50;;;;;;;9.52;79.93;103059.59;106992;1256;70188;-78
2023/02/13 11:44:47;;;;;;;4.30;2.50;;;;;;;9.51;79.38;103060.89;107154;1259;73470;-75
2023/02/13 11:47:15;;;;;;;3.90;2.30;;;;;;;9.54;79.63;103064.23;107358;1252;61266;-76
2023/02/13 11:49:46;;;;;;;3.60;2.30;;;;;;;9.54;79.09;103059.79;106833;1251;61148;-75
2023/02/13 11:52:26;;;;;;;4.10;2.50;;;;;;;9.57;79.26;103060.45;107693;1253;73512;-74
2023/02/13 11:55:22;;;;;;;3.80;2.20;;;;;;;9.56;78.78;103058.59;107233;1254;71786;-76
2023/02/13 11:57:58;;;;;;;3.50;2.50;;;;;;;9.56;78.29;103056.80;107186;1253;71238;-76
2023/02/13 12:00:36;;;;;;;4.10;2.30;;;;;;;9.56;78.49;103056.45;106986;1252;61358;-77
2023/02/13 12:03:28;;;;;;;3.30;2.20;;;;;;;9.60;78.18;103052.83;106997;1252;61503;-76
2023/02/13 12:06:15;;;;;;;3.70;2.10;;;;;;;9.60;78.03;103050.02;107301;1254;73456;-76
2023/02/13 12:08:46;;;;;;;3.20;2.20;;;;;;;9.68;78.46;103052.06;106995;1254;69170;-77
2023/02/13 12:11:39;;;;;;;3.90;2.20;;;;;;;9.73;78.10;103046.58;107132;1253;73102;-75
2023/02/13 12:14:12;;;;;;;5.70;3.00;;;;;;;9.78;77.41;103049.20;107291;1253;61226;-76
2023/02/13 12:16:43;;;;;;;4.40;2.50;;;;;;;9.77;76.82;103047.17;107066;1258;60468;-79
2023/02/13 12:19:16;;;;;;;3.80;2.30;;;;;;;9.76;75.91;103044.42;106667;1254;73583;-76
2023/02/13 12:22:08;;;;;;;4.90;2.40;;;;;;;9.77;76.37;103043.78;107025;1256;69545;-82
2023/02/13 12:24:55;;;;;;;3.30;2.20;;;;;;;9.83;75.97;103039.52;107140;1254;71817;-76
2023/02/13 12:27:29;;;;;;;3.80;2.40;;;;;;;9.86;75.79;103033.80;107038;1253;61295;-79
2023/02/13 12:30:13;;;;;;;3.60;2.20;;;;;;;9.89;75.43;103028.15;107089;1255;61642;-76